TimeCST,TemperatureF,Dew PointF,Humidity,Sea Level PressureIn,VisibilityMPH,Wind Direction,Wind SpeedMPH,Gust SpeedMPH,PrecipitationIn,Events,Conditions,WindDirDegrees,DateUTC
12:53 AM,57.0,48.9,74,30.10,10.0,East,3.5,-,N/A,,Clear,100,2012-12-06 06:53:00
1:53 AM,55.9,48.9,77,30.09,10.0,East,4.6,-,N/A,,Clear,100,2012-12-06 07:53:00
2:53 AM,54.0,48.9,83,30.09,10.0,East,4.6,-,N/A,,Clear,90,2012-12-06 08:53:00
3:53 AM,55.9,48.9,77,30.08,10.0,East,4.6,-,N/A,,Clear,80,2012-12-06 09:53:00
4:53 AM,51.1,48.0,89,30.09,10.0,Calm,Calm,-,N/A,,Clear,0,2012-12-06 10:53:00
5:53 AM,51.1,48.0,89,30.11,10.0,NE,4.6,-,N/A,,Clear,40,2012-12-06 11:53:00
6:53 AM,51.1,48.0,89,30.12,10.0,Calm,Calm,-,N/A,,Clear,0,2012-12-06 12:53:00
7:53 AM,54.0,51.1,90,30.13,10.0,NE,4.6,-,N/A,,Mostly Cloudy,40,2012-12-06 13:53:00
8:53 AM,62.1,54.0,75,30.12,10.0,East,4.6,-,N/A,,Clear,80,2012-12-06 14:53:00
9:53 AM,66.9,55.0,66,30.12,10.0,East,5.8,-,N/A,,Clear,80,2012-12-06 15:53:00
10:53 AM,70.0,54.0,57,30.09,10.0,ESE,8.1,-,N/A,,Clear,110,2012-12-06 16:53:00
11:53 AM,71.1,54.0,55,30.07,10.0,East,8.1,-,N/A,,Partly Cloudy,100,2012-12-06 17:53:00
12:53 PM,71.1,54.0,55,30.05,10.0,ESE,6.9,-,N/A,,Scattered Clouds,120,2012-12-06 18:53:00
1:53 PM,73.0,54.0,51,30.03,10.0,East,5.8,-,N/A,,Scattered Clouds,80,2012-12-06 19:53:00
2:53 PM,72.0,55.0,55,30.03,10.0,NE,6.9,-,N/A,,Overcast,40,2012-12-06 20:53:00
3:53 PM,71.1,55.9,59,30.03,10.0,NE,8.1,-,N/A,,Mostly Cloudy,50,2012-12-06 21:53:00
4:53 PM,66.9,55.9,68,30.04,10.0,ENE,4.6,-,N/A,,Partly Cloudy,60,2012-12-06 22:53:00
5:53 PM,64.9,55.9,73,30.05,10.0,NE,5.8,-,N/A,,Clear,40,2012-12-06 23:53:00
7:53 PM,64.0,55.0,73,30.06,10.0,East,9.2,-,N/A,,Partly Cloudy,80,2012-12-07 01:53:00
8:53 PM,62.1,54.0,75,30.06,10.0,ENE,8.1,-,N/A,,Scattered Clouds,70,2012-12-07 02:53:00
9:53 PM,60.1,55.0,83,30.07,10.0,ENE,6.9,-,N/A,,Clear,70,2012-12-07 03:53:00
10:45 PM,60.8,55.4,82,30.08,10.0,East,8.1,-,N/A,,Mostly Cloudy,80,2012-12-07 04:45:00
10:53 PM,61.0,55.9,83,30.07,10.0,East,9.2,-,N/A,,Mostly Cloudy,90,2012-12-07 04:53:00
11:53 PM,61.0,55.9,83,30.06,10.0,East,10.4,-,N/A,,Overcast,90,2012-12-07 05:53:00